createdAt,value
2022-11-17T00:00:35.310Z,0.00
2022-11-17T00:01:35.291Z,0.00
2022-11-17T00:02:35.348Z,0.00
2022-11-17T00:03:35.622Z,0.00
2022-11-17T00:04:35.256Z,0.00
2022-11-17T00:05:35.240Z,0.00
2022-11-17T00:06:35.314Z,0.00
2022-11-17T00:07:35.311Z,0.00
2022-11-17T00:08:35.204Z,0.00
2022-11-17T00:09:35.192Z,0.00
2022-11-17T00:10:35.343Z,0.00
2022-11-17T00:11:35.165Z,0.00
2022-11-17T00:12:35.150Z,0.00
2022-11-17T00:13:35.495Z,0.00
2022-11-17T00:14:35.131Z,0.00
2022-11-17T00:15:35.114Z,0.00
2022-11-17T00:16:35.102Z,0.00
2022-11-17T00:17:35.088Z,0.00
2022-11-17T00:18:35.077Z,0.00
2022-11-17T00:19:35.065Z,0.00
2022-11-17T00:20:35.049Z,0.00
2022-11-17T00:21:35.037Z,0.00
2022-11-17T00:22:35.112Z,0.00
2022-11-17T00:23:35.318Z,0.00
2022-11-17T00:24:34.999Z,0.00
2022-11-17T00:25:34.985Z,0.00
2022-11-17T00:26:34.973Z,0.00
2022-11-17T00:27:34.961Z,0.00
2022-11-17T00:28:34.958Z,0.00
2022-11-17T00:29:39.039Z,0.00
2022-11-17T00:30:34.919Z,0.00
2022-11-17T00:31:34.913Z,0.00
2022-11-17T00:32:34.897Z,0.00
2022-11-17T00:33:35.245Z,0.00
2022-11-17T00:34:34.872Z,0.00
2022-11-17T00:35:34.857Z,0.00
2022-11-17T00:36:34.846Z,0.00
2022-11-17T00:37:34.835Z,0.00
2022-11-17T00:38:34.900Z,0.00
2022-11-17T00:39:34.807Z,0.00
2022-11-17T00:40:34.802Z,0.00
2022-11-17T00:41:34.790Z,0.00
2022-11-17T00:42:34.766Z,0.00
2022-11-17T00:43:34.953Z,0.00
2022-11-17T00:44:34.741Z,0.00
2022-11-17T00:45:34.728Z,0.00
2022-11-17T00:46:34.715Z,0.00
2022-11-17T00:47:34.701Z,0.00
2022-11-17T00:48:34.691Z,0.00
2022-11-17T00:49:34.698Z,0.00
2022-11-17T00:50:34.664Z,0.00
2022-11-17T00:51:34.657Z,0.00
2022-11-17T00:52:34.637Z,0.00
2022-11-17T00:53:34.986Z,0.00
2022-11-17T00:54:34.612Z,0.00
2022-11-17T00:55:34.666Z,0.00
2022-11-17T00:56:34.594Z,0.00
2022-11-17T00:57:34.570Z,0.00
2022-11-17T00:58:34.560Z,0.00
2022-11-17T00:59:34.551Z,0.00
2022-11-17T01:00:34.535Z,0.00
2022-11-17T01:01:34.619Z,0.00
2022-11-17T01:02:34.506Z,0.00
2022-11-17T01:03:34.791Z,0.00
2022-11-17T01:04:34.481Z,0.00
2022-11-17T01:05:34.477Z,0.00
2022-11-17T01:06:34.466Z,0.00
2022-11-17T01:07:34.495Z,0.00
2022-11-17T01:08:34.429Z,0.00
2022-11-17T01:09:34.413Z,0.00
2022-11-17T01:10:34.486Z,0.00
2022-11-17T01:11:34.389Z,0.00
2022-11-17T01:12:34.377Z,0.00
2022-11-17T01:13:34.663Z,0.00
2022-11-17T01:14:34.358Z,0.00
2022-11-17T01:15:34.339Z,0.00
2022-11-17T01:16:34.325Z,0.00
2022-11-17T01:17:34.316Z,0.00
2022-11-17T01:18:34.297Z,0.00
2022-11-17T01:19:34.288Z,0.00
2022-11-17T01:20:34.275Z,0.00
2022-11-17T01:21:34.262Z,0.00
2022-11-17T01:22:34.247Z,0.00
2022-11-17T01:23:34.677Z,0.00
2022-11-17T01:24:34.223Z,0.00
2022-11-17T01:25:34.208Z,0.00
2022-11-17T01:26:34.199Z,0.00
2022-11-17T01:27:34.181Z,0.00
2022-11-17T01:28:34.169Z,0.00
2022-11-17T01:29:34.158Z,0.00
2022-11-17T01:30:34.146Z,0.00
2022-11-17T01:31:34.130Z,0.00
2022-11-17T01:32:34.116Z,0.00
2022-11-17T01:33:34.543Z,0.00
2022-11-17T01:34:34.089Z,0.00
2022-11-17T01:35:34.082Z,0.00
2022-11-17T01:36:34.065Z,0.00
2022-11-17T01:37:34.050Z,0.00
2022-11-17T01:38:34.054Z,0.00
2022-11-17T01:39:34.029Z,0.00
2022-11-17T01:40:34.015Z,0.00
2022-11-17T01:41:34.001Z,0.00
2022-11-17T01:42:34.067Z,0.00
2022-11-17T01:43:34.379Z,0.00
2022-11-17T01:44:33.965Z,0.00
2022-11-17T01:45:33.950Z,0.00
2022-11-17T01:46:33.934Z,0.00
2022-11-17T01:47:33.926Z,0.00
2022-11-17T01:48:33.910Z,0.00
2022-11-17T01:49:33.904Z,0.00
2022-11-17T01:50:33.885Z,0.00
2022-11-17T01:51:33.867Z,0.00
2022-11-17T01:52:33.859Z,0.00
2022-11-17T01:53:34.159Z,0.00
2022-11-17T01:54:33.834Z,0.00
2022-11-17T01:55:33.820Z,0.00
2022-11-17T01:56:33.808Z,0.00
2022-11-17T01:57:33.797Z,0.00
2022-11-17T01:58:33.790Z,0.00
2022-11-17T01:59:33.777Z,0.00
2022-11-17T02:00:33.760Z,0.00
2022-11-17T02:01:33.844Z,0.00
2022-11-17T02:02:33.730Z,0.00
2022-11-17T02:03:34.110Z,0.00
2022-11-17T02:04:33.702Z,0.00
2022-11-17T02:05:33.698Z,0.00
2022-11-17T02:06:33.677Z,0.00
2022-11-17T02:07:33.697Z,0.00
2022-11-17T02:08:33.658Z,0.00
2022-11-17T02:09:33.649Z,0.00
2022-11-17T02:10:33.626Z,0.00
2022-11-17T02:11:33.612Z,0.00
2022-11-17T02:12:33.599Z,0.00
2022-11-17T02:13:33.942Z,0.00
2022-11-17T02:14:33.656Z,0.00
2022-11-17T02:15:33.560Z,0.00
2022-11-17T02:16:33.550Z,0.00
2022-11-17T02:17:33.532Z,0.00
2022-11-17T02:18:33.521Z,0.00
2022-11-17T02:19:33.508Z,0.00
2022-11-17T02:20:33.495Z,0.00
2022-11-17T02:21:33.486Z,0.00
2022-11-17T02:22:33.469Z,0.00
2022-11-17T02:23:33.777Z,0.00
2022-11-17T02:24:33.443Z,0.00
2022-11-17T02:25:33.428Z,0.00
2022-11-17T02:26:33.419Z,0.00
2022-11-17T02:27:33.411Z,0.00
2022-11-17T02:28:33.392Z,0.00
2022-11-17T02:29:33.378Z,0.00
2022-11-17T02:30:33.360Z,0.00
2022-11-17T02:31:33.351Z,0.00
2022-11-17T02:32:33.338Z,0.00
2022-11-17T02:33:33.775Z,0.00
2022-11-17T02:34:33.316Z,0.00
2022-11-17T02:35:33.426Z,0.00
2022-11-17T02:36:33.285Z,0.00
2022-11-17T02:37:33.272Z,0.00
2022-11-17T02:38:33.259Z,0.00
2022-11-17T02:39:33.245Z,0.00
2022-11-17T02:40:33.241Z,0.00
2022-11-17T02:41:33.219Z,0.00
2022-11-17T02:42:33.207Z,0.00
2022-11-17T02:43:33.475Z,0.00
2022-11-17T02:44:33.181Z,0.00
2022-11-17T02:45:33.170Z,0.00
2022-11-17T02:46:33.239Z,0.00
2022-11-17T02:47:33.140Z,0.00
2022-11-17T02:48:33.129Z,0.00
2022-11-17T02:49:33.120Z,0.00
2022-11-17T02:52:04.748Z,0.00
2022-11-17T02:53:04.737Z,0.00
2022-11-17T02:54:57.827Z,0.00
2022-11-17T02:55:57.798Z,0.00
2022-11-17T02:58:01.800Z,0.00
2022-11-17T02:59:01.794Z,0.00
2022-11-17T03:00:54.877Z,0.00
2022-11-17T03:01:55.022Z,0.00
2022-11-17T03:03:58.843Z,0.00
2022-11-17T03:04:58.817Z,0.00
2022-11-17T03:05:58.816Z,0.00
2022-11-17T03:06:58.820Z,0.00
2022-11-17T03:07:58.780Z,0.00
2022-11-17T03:08:58.803Z,0.00
2022-11-17T03:09:58.750Z,0.00
2022-11-17T03:10:58.747Z,0.00
2022-11-17T03:11:58.723Z,0.00
2022-11-17T03:12:58.714Z,0.00
2022-11-17T03:13:58.729Z,0.00
2022-11-17T03:14:58.711Z,0.00
2022-11-17T03:15:58.697Z,0.00
2022-11-17T03:16:58.739Z,0.00
2022-11-17T03:17:58.644Z,0.00
2022-11-17T03:18:58.673Z,0.00
2022-11-17T03:19:58.625Z,0.00
2022-11-17T03:20:58.620Z,0.00
2022-11-17T03:21:58.638Z,0.00
2022-11-17T03:22:58.578Z,0.00
2022-11-17T03:23:58.656Z,0.00
2022-11-17T03:24:58.646Z,0.00
2022-11-17T03:25:58.566Z,0.00
2022-11-17T03:26:58.564Z,0.00
2022-11-17T03:27:58.586Z,0.00
2022-11-17T03:28:58.507Z,0.00
2022-11-17T03:29:58.503Z,0.00
2022-11-17T03:30:58.502Z,0.00
2022-11-17T03:31:58.471Z,0.00
2022-11-17T03:32:58.495Z,0.00
2022-11-17T03:33:58.431Z,0.00
2022-11-17T03:34:58.434Z,0.00
2022-11-17T03:35:58.403Z,0.00
2022-11-17T03:36:58.423Z,0.00
2022-11-17T03:37:58.381Z,0.00
2022-11-17T03:38:58.436Z,0.00
2022-11-17T03:39:58.378Z,0.00
2022-11-17T03:40:58.440Z,0.00
2022-11-17T03:41:58.338Z,0.00
2022-11-17T03:42:58.332Z,0.00
2022-11-17T03:43:58.395Z,0.00
2022-11-17T03:44:58.293Z,0.00
2022-11-17T03:45:58.276Z,0.00
2022-11-17T03:46:58.267Z,0.00
2022-11-17T03:47:58.252Z,0.00
2022-11-17T03:48:58.360Z,0.00
2022-11-17T03:49:58.226Z,0.00
2022-11-17T03:50:58.216Z,0.00
2022-11-17T03:51:58.192Z,0.00
2022-11-17T03:52:58.184Z,0.00
2022-11-17T03:53:58.171Z,0.00
2022-11-17T03:54:58.160Z,0.00
2022-11-17T03:55:58.145Z,0.00
2022-11-17T03:56:58.132Z,0.00
2022-11-17T03:57:58.135Z,0.00
2022-11-17T03:58:58.105Z,0.00
2022-11-17T03:59:58.091Z,0.00
2022-11-17T04:00:58.077Z,0.00
2022-11-17T04:01:58.098Z,0.00
2022-11-17T04:02:58.053Z,0.00
2022-11-17T04:03:58.045Z,0.00
2022-11-17T04:04:58.108Z,0.00
2022-11-17T04:05:58.027Z,0.00
2022-11-17T04:06:58.092Z,0.00
2022-11-17T04:07:57.986Z,0.00
2022-11-17T04:08:57.977Z,0.00
2022-11-17T04:09:57.960Z,0.00
2022-11-17T04:10:58.104Z,0.00
2022-11-17T04:11:57.933Z,0.00
2022-11-17T04:12:57.935Z,0.00
2022-11-17T04:13:57.907Z,0.00
2022-11-17T04:14:58.020Z,0.00
2022-11-17T04:15:57.881Z,0.00
2022-11-17T04:16:57.869Z,0.00
2022-11-17T04:17:57.880Z,0.00
2022-11-17T04:18:59.201Z,0.00
2022-11-17T04:19:57.831Z,0.00
2022-11-17T04:20:57.895Z,0.00
2022-11-17T04:21:57.806Z,0.00
2022-11-17T04:22:57.796Z,0.00
2022-11-17T04:23:57.777Z,0.00
2022-11-17T04:24:57.763Z,0.00
2022-11-17T04:25:57.828Z,0.00
2022-11-17T04:26:57.740Z,0.00
2022-11-17T04:27:57.746Z,0.00
2022-11-17T04:28:57.778Z,0.00
2022-11-17T04:29:57.698Z,0.00
2022-11-17T04:30:57.687Z,0.00
2022-11-17T04:31:57.671Z,0.00
2022-11-17T04:32:57.660Z,0.00
2022-11-17T04:33:57.644Z,0.00
2022-11-17T04:34:57.634Z,0.00
2022-11-17T04:35:57.619Z,0.00
2022-11-17T04:36:57.692Z,0.00
2022-11-17T04:37:57.592Z,0.00
2022-11-17T04:38:57.587Z,0.00
2022-11-17T04:39:57.565Z,0.00
2022-11-17T04:40:57.568Z,0.00
2022-11-17T04:41:57.665Z,0.00
2022-11-17T04:42:57.529Z,0.00
2022-11-17T04:43:57.528Z,0.00
2022-11-17T04:44:57.503Z,0.00
2022-11-17T04:45:57.490Z,0.00
2022-11-17T04:46:57.495Z,0.00
2022-11-17T04:47:57.476Z,0.00
2022-11-17T04:48:57.475Z,0.00
2022-11-17T04:49:57.436Z,0.00
2022-11-17T04:50:57.457Z,0.00
2022-11-17T04:51:57.433Z,0.00
2022-11-17T04:52:57.418Z,0.00
2022-11-17T04:53:57.385Z,0.00
2022-11-17T04:54:57.381Z,0.00
2022-11-17T04:55:57.364Z,0.00
2022-11-17T04:56:57.372Z,0.00
2022-11-17T04:57:57.333Z,0.00
2022-11-17T04:58:57.376Z,0.00
2022-11-17T04:59:57.303Z,0.00
2022-11-17T05:00:57.310Z,0.00
2022-11-17T05:02:01.154Z,0.00
2022-11-17T05:02:57.265Z,0.00
2022-11-17T05:03:57.252Z,0.00
2022-11-17T05:04:57.240Z,0.00
2022-11-17T05:05:57.228Z,0.00
2022-11-17T05:06:57.265Z,0.00
2022-11-17T05:07:57.210Z,0.00
2022-11-17T05:08:57.270Z,0.00
2022-11-17T05:09:57.179Z,0.00
2022-11-17T05:10:57.201Z,0.00
2022-11-17T05:11:57.163Z,0.00
2022-11-17T05:12:57.145Z,0.00
2022-11-17T05:13:57.120Z,0.00
2022-11-17T05:14:57.113Z,0.00
2022-11-17T05:15:57.104Z,0.00
2022-11-17T05:16:57.095Z,0.00
2022-11-17T05:17:57.085Z,0.00
2022-11-17T05:18:57.067Z,0.00
2022-11-17T05:19:57.046Z,0.00
2022-11-17T05:20:57.034Z,0.00
2022-11-17T05:21:57.025Z,0.00
2022-11-17T05:22:57.008Z,0.00
2022-11-17T05:23:56.992Z,0.00
2022-11-17T05:24:57.062Z,0.00
2022-11-17T05:25:56.970Z,0.00
2022-11-17T05:26:56.957Z,0.00
2022-11-17T05:27:56.942Z,0.00
2022-11-17T05:28:56.937Z,0.00
2022-11-17T05:29:56.916Z,0.00
2022-11-17T05:30:56.909Z,0.00
2022-11-17T05:31:56.892Z,0.00
2022-11-17T05:32:56.880Z,0.00
2022-11-17T05:33:56.872Z,0.00
2022-11-17T05:34:56.851Z,0.00
2022-11-17T05:35:56.838Z,0.00
2022-11-17T05:36:56.826Z,0.00
2022-11-17T05:37:56.810Z,0.00
2022-11-17T05:38:56.799Z,0.00
2022-11-17T05:39:56.786Z,0.00
2022-11-17T05:40:56.883Z,0.00
2022-11-17T05:41:56.767Z,0.00
2022-11-17T05:42:57.256Z,0.00
2022-11-17T05:43:56.727Z,0.00
2022-11-17T05:44:56.722Z,0.00
2022-11-17T05:45:56.706Z,0.00
2022-11-17T05:46:56.695Z,0.00
2022-11-17T05:47:56.680Z,0.00
2022-11-17T05:48:56.668Z,0.00
2022-11-17T05:49:56.654Z,0.00
2022-11-17T05:50:56.641Z,0.00
2022-11-17T05:51:56.637Z,0.00
2022-11-17T05:52:56.618Z,0.00
2022-11-17T05:53:56.606Z,0.00
2022-11-17T05:54:56.590Z,0.00
2022-11-17T05:55:56.650Z,0.00
2022-11-17T05:56:56.653Z,0.00
2022-11-17T05:57:56.553Z,0.00
2022-11-17T05:58:56.540Z,0.00
2022-11-17T05:59:56.524Z,0.00
2022-11-17T06:00:56.509Z,0.00
2022-11-17T06:01:56.501Z,0.00
2022-11-17T06:02:56.486Z,0.00
2022-11-17T06:03:56.508Z,0.00
2022-11-17T06:04:56.467Z,0.00
2022-11-17T06:05:56.450Z,4.00
2022-11-17T06:06:56.468Z,4.00
2022-11-17T06:07:56.420Z,0.00
2022-11-17T06:08:56.407Z,0.00
2022-11-17T06:09:56.400Z,4.00
2022-11-17T06:10:56.387Z,4.00
2022-11-17T06:11:59.751Z,4.00
2022-11-17T06:12:56.439Z,4.00
2022-11-17T06:13:56.355Z,4.00
2022-11-17T06:14:56.330Z,8.00
2022-11-17T06:15:56.316Z,4.00
2022-11-17T06:16:56.306Z,8.00
2022-11-17T06:17:56.291Z,8.00
2022-11-17T06:18:56.286Z,8.00
2022-11-17T06:19:56.265Z,8.00
2022-11-17T06:20:56.251Z,8.00
2022-11-17T06:22:11.581Z,8.00
2022-11-17T06:22:56.237Z,12.00
2022-11-17T06:23:56.216Z,12.00
2022-11-17T06:24:56.205Z,16.00
2022-11-17T06:25:56.185Z,16.00
2022-11-17T06:26:56.186Z,20.00
2022-11-17T06:27:56.165Z,20.00
2022-11-17T06:28:56.159Z,20.00
2022-11-17T06:29:56.138Z,24.00
2022-11-17T06:30:56.126Z,24.00
2022-11-17T06:31:56.113Z,24.00
2022-11-17T06:32:56.101Z,28.00
2022-11-17T06:33:56.088Z,32.00
2022-11-17T06:34:56.583Z,36.00
2022-11-17T06:35:56.386Z,40.00
2022-11-17T06:36:56.055Z,44.00
2022-11-17T06:37:56.040Z,44.00
2022-11-17T06:38:56.021Z,48.00
2022-11-17T06:39:56.012Z,52.00
2022-11-17T06:40:55.995Z,52.00
2022-11-17T06:41:55.983Z,52.00
2022-11-17T06:42:55.976Z,56.00
2022-11-17T06:43:55.958Z,60.00
2022-11-17T06:44:56.030Z,68.00
2022-11-17T06:45:55.994Z,68.00
2022-11-17T06:46:55.920Z,68.00
2022-11-17T06:47:55.910Z,72.00
2022-11-17T06:48:55.895Z,76.00
2022-11-17T06:49:55.891Z,84.00
2022-11-17T06:50:55.870Z,84.00
2022-11-17T06:51:55.856Z,92.00
2022-11-17T06:52:55.844Z,100.00
2022-11-17T06:53:55.829Z,104.00
2022-11-17T06:54:55.819Z,112.00
2022-11-17T06:55:55.803Z,124.00
2022-11-17T06:56:55.787Z,140.00
2022-11-17T06:57:55.792Z,140.00
2022-11-17T06:58:55.767Z,144.00
2022-11-17T06:59:55.756Z,152.00
2022-11-17T07:00:55.811Z,160.00
2022-11-17T07:01:55.725Z,152.00
2022-11-17T07:02:55.714Z,152.00
2022-11-17T07:03:55.704Z,164.00
2022-11-17T07:04:55.689Z,160.00
2022-11-17T07:05:55.676Z,184.00
2022-11-17T07:06:55.709Z,208.00
2022-11-17T07:07:55.648Z,200.00
2022-11-17T07:08:55.640Z,188.00
2022-11-17T07:09:55.631Z,192.00
2022-11-17T07:10:55.696Z,220.00
2022-11-17T07:11:55.592Z,208.00
2022-11-17T07:12:55.584Z,232.00
2022-11-17T07:13:55.572Z,268.00
2022-11-17T07:14:55.566Z,252.00
2022-11-17T07:15:55.544Z,260.00
2022-11-17T07:16:55.533Z,264.00
2022-11-17T07:17:55.562Z,272.00
2022-11-17T07:18:55.508Z,268.00
2022-11-17T07:19:55.492Z,256.00
2022-11-17T07:20:55.483Z,364.00
2022-11-17T07:21:55.479Z,328.00
2022-11-17T07:22:55.457Z,324.00
2022-11-17T07:23:55.443Z,312.00
2022-11-17T07:24:55.440Z,400.00
2022-11-17T07:25:55.421Z,356.00
2022-11-17T07:26:55.407Z,356.00
2022-11-17T07:27:55.392Z,348.00
2022-11-17T07:28:55.383Z,300.00
2022-11-17T07:29:55.367Z,280.00
2022-11-17T07:30:55.361Z,324.00
2022-11-17T07:31:55.386Z,296.00
2022-11-17T07:32:55.325Z,268.00
2022-11-17T07:33:55.313Z,272.00
2022-11-17T07:34:55.302Z,300.00
2022-11-17T07:35:55.286Z,300.00
2022-11-17T07:36:55.279Z,324.00
2022-11-17T07:37:55.266Z,352.00
2022-11-17T07:38:55.251Z,400.00
2022-11-17T07:39:55.239Z,420.00
2022-11-17T07:40:55.226Z,456.00
2022-11-17T07:41:55.215Z,508.00
2022-11-17T07:42:55.202Z,456.00
2022-11-17T07:43:55.186Z,448.00
2022-11-17T07:44:55.178Z,404.00
2022-11-17T07:45:55.163Z,376.00
2022-11-17T07:46:55.152Z,376.00
2022-11-17T07:47:55.136Z,340.00
2022-11-17T07:48:55.159Z,320.00
2022-11-17T07:49:55.113Z,324.00
2022-11-17T07:50:55.102Z,344.00
2022-11-17T07:51:55.087Z,348.00
2022-11-17T07:52:55.075Z,368.00
2022-11-17T07:53:55.058Z,396.00
2022-11-17T07:54:55.048Z,428.00
2022-11-17T07:55:55.035Z,436.00
2022-11-17T07:56:55.023Z,400.00
2022-11-17T07:57:55.012Z,408.00
2022-11-17T07:58:55.001Z,428.00
2022-11-17T07:59:54.984Z,512.00
2022-11-17T08:00:55.052Z,512.00
2022-11-17T08:01:54.959Z,520.00
2022-11-17T08:02:54.959Z,612.00
2022-11-17T08:03:55.063Z,592.00
2022-11-17T08:04:55.015Z,636.00
2022-11-17T08:05:54.915Z,668.00
2022-11-17T08:06:54.980Z,696.00
2022-11-17T08:07:54.888Z,640.00
2022-11-17T08:08:54.882Z,636.00
2022-11-17T08:09:54.869Z,664.00
2022-11-17T08:10:54.877Z,620.00
2022-11-17T08:11:54.835Z,672.00
2022-11-17T08:12:54.819Z,644.00
2022-11-17T08:13:54.807Z,612.00
2022-11-17T08:14:54.827Z,732.00
2022-11-17T08:15:54.785Z,708.00
2022-11-17T08:16:54.769Z,700.00
2022-11-17T08:17:54.757Z,752.00
2022-11-17T08:18:54.746Z,812.00
2022-11-17T08:19:54.733Z,712.00
2022-11-17T08:20:54.803Z,668.00
2022-11-17T08:21:54.709Z,684.00
2022-11-17T08:22:54.698Z,624.00
2022-11-17T08:23:54.684Z,616.00
2022-11-17T08:24:54.673Z,640.00
2022-11-17T08:25:54.661Z,604.00
2022-11-17T08:26:54.657Z,644.00
2022-11-17T08:27:54.634Z,644.00
2022-11-17T08:28:58.426Z,744.00
2022-11-17T08:29:54.612Z,816.00
2022-11-17T08:30:54.602Z,912.00
2022-11-17T08:31:54.585Z,904.00
2022-11-17T08:32:54.657Z,864.00
2022-11-17T08:33:54.561Z,932.00
2022-11-17T08:34:54.548Z,928.00
2022-11-17T08:35:54.535Z,968.00
2022-11-17T08:36:54.610Z,988.00
2022-11-17T08:37:54.514Z,1020.00
2022-11-17T08:38:54.502Z,956.00
2022-11-17T08:39:54.486Z,924.00
2022-11-17T08:40:54.473Z,1060.00
2022-11-17T08:41:54.464Z,1088.00
2022-11-17T08:43:00.345Z,1056.00
2022-11-17T08:43:54.469Z,872.00
2022-11-17T08:44:54.430Z,912.00
2022-11-17T08:45:54.427Z,904.00
2022-11-17T08:46:54.395Z,952.00
2022-11-17T08:47:54.396Z,1024.00
2022-11-17T08:48:57.043Z,976.00
2022-11-17T08:49:54.381Z,1132.00
2022-11-17T08:50:54.350Z,1052.00
2022-11-17T08:51:54.346Z,1056.00
2022-11-17T08:54:25.979Z,992.00
2022-11-17T08:55:26.006Z,904.00
2022-11-17T08:56:25.934Z,988.00
2022-11-17T08:57:25.999Z,1128.00
2022-11-17T08:58:25.908Z,920.00
2022-11-17T08:59:25.898Z,992.00
2022-11-17T09:00:25.913Z,1160.00
2022-11-17T09:01:25.915Z,1120.00
2022-11-17T09:02:25.865Z,1000.00
2022-11-17T09:03:25.853Z,1020.00
2022-11-17T09:04:25.835Z,1192.00
2022-11-17T09:05:25.822Z,1052.00
2022-11-17T09:06:25.809Z,1032.00
2022-11-17T09:07:28.392Z,1436.00
2022-11-17T09:09:25.807Z,1184.00
2022-11-17T09:10:25.843Z,1272.00
2022-11-17T09:11:25.748Z,1164.00
2022-11-17T09:12:25.739Z,1132.00
2022-11-17T09:13:25.721Z,1220.00
2022-11-17T09:14:25.709Z,1120.00
2022-11-17T09:15:25.700Z,1068.00
2022-11-17T09:16:25.703Z,1060.00
2022-11-17T09:17:25.712Z,1060.00
2022-11-17T09:18:25.672Z,1020.00
2022-11-17T09:19:25.657Z,972.00
2022-11-17T09:20:25.653Z,924.00
2022-11-17T09:21:25.656Z,952.00
2022-11-17T09:22:25.634Z,1044.00
2022-11-17T09:23:25.625Z,904.00
2022-11-17T09:24:25.717Z,896.00
2022-11-17T09:25:25.569Z,932.00
2022-11-17T09:26:25.915Z,888.00
2022-11-17T09:27:25.550Z,892.00
2022-11-17T09:28:25.536Z,876.00
2022-11-17T09:29:25.529Z,896.00
2022-11-17T09:30:25.515Z,880.00
2022-11-17T09:31:25.545Z,936.00
2022-11-17T09:32:25.491Z,860.00
2022-11-17T09:33:25.478Z,908.00
2022-11-17T09:34:25.494Z,976.00
2022-11-17T09:35:25.463Z,924.00
2022-11-17T09:36:25.442Z,976.00
2022-11-17T09:37:25.450Z,1000.00
2022-11-17T09:38:25.412Z,892.00
2022-11-17T09:39:25.396Z,952.00
2022-11-17T09:40:25.396Z,992.00
2022-11-17T09:41:25.378Z,984.00
2022-11-17T09:42:25.440Z,1168.00
2022-11-17T09:43:25.351Z,1132.00
2022-11-17T09:44:25.344Z,928.00
2022-11-17T09:45:25.327Z,944.00
2022-11-17T09:46:25.310Z,992.00
2022-11-17T09:47:25.300Z,920.00
2022-11-17T09:48:40.675Z,888.00
2022-11-17T09:49:25.282Z,856.00
2022-11-17T09:50:25.262Z,800.00
2022-11-17T09:51:25.255Z,800.00
2022-11-17T09:52:25.238Z,792.00
2022-11-17T09:53:25.232Z,892.00
2022-11-17T09:54:25.217Z,860.00
2022-11-17T09:55:29.704Z,804.00
2022-11-17T09:56:25.194Z,748.00
2022-11-17T09:57:25.209Z,824.00
2022-11-17T09:58:25.191Z,748.00
2022-11-17T09:59:25.154Z,744.00
2022-11-17T10:00:25.148Z,784.00
2022-11-17T10:01:25.130Z,760.00
2022-11-17T10:02:25.172Z,752.00
2022-11-17T10:03:25.130Z,696.00
2022-11-17T10:04:25.092Z,840.00
2022-11-17T10:05:25.078Z,728.00
2022-11-17T10:06:25.072Z,784.00
2022-11-17T10:07:25.103Z,728.00
2022-11-17T10:08:25.044Z,744.00
2022-11-17T10:09:26.063Z,740.00
2022-11-17T10:10:25.020Z,812.00
2022-11-17T10:11:25.005Z,792.00
2022-11-17T10:12:24.993Z,780.00
2022-11-17T10:13:24.988Z,828.00
2022-11-17T10:14:25.058Z,804.00
2022-11-17T10:15:24.997Z,796.00
2022-11-17T10:16:24.957Z,808.00
2022-11-17T10:17:24.934Z,884.00
2022-11-17T10:18:24.920Z,832.00
2022-11-17T10:19:24.914Z,864.00
2022-11-17T10:20:24.903Z,836.00
2022-11-17T10:21:24.891Z,936.00
2022-11-17T10:22:24.878Z,964.00
2022-11-17T10:23:24.858Z,1044.00
2022-11-17T10:24:24.859Z,1060.00
2022-11-17T10:25:24.845Z,1072.00
2022-11-17T10:26:24.823Z,1020.00
2022-11-17T10:27:24.840Z,1012.00
2022-11-17T10:28:24.811Z,1000.00
2022-11-17T10:29:24.795Z,1016.00
2022-11-17T10:30:24.857Z,1056.00
2022-11-17T10:31:24.765Z,976.00
2022-11-17T10:32:24.780Z,1016.00
2022-11-17T10:33:24.743Z,948.00
2022-11-17T10:34:29.847Z,940.00
2022-11-17T10:35:24.716Z,932.00
2022-11-17T10:36:24.714Z,884.00
2022-11-17T10:37:24.701Z,876.00
2022-11-17T10:38:24.834Z,892.00
2022-11-17T10:39:24.664Z,876.00
2022-11-17T10:40:25.964Z,844.00
2022-11-17T10:41:24.647Z,788.00
2022-11-17T10:42:24.632Z,788.00
2022-11-17T10:43:24.619Z,772.00
2022-11-17T10:44:24.613Z,760.00
2022-11-17T10:45:24.595Z,812.00
2022-11-17T10:46:24.625Z,788.00
2022-11-17T10:47:24.567Z,748.00
2022-11-17T10:48:24.562Z,776.00
2022-11-17T10:49:24.547Z,756.00
2022-11-17T10:50:24.534Z,728.00
2022-11-17T10:51:24.519Z,696.00
2022-11-17T10:52:24.517Z,700.00
2022-11-17T10:53:24.505Z,796.00
2022-11-17T10:54:24.479Z,832.00
2022-11-17T10:55:24.470Z,760.00
2022-11-17T10:56:24.454Z,748.00
2022-11-17T10:57:24.461Z,796.00
2022-11-17T10:58:24.494Z,888.00
2022-11-17T10:59:24.427Z,852.00
2022-11-17T11:00:24.425Z,816.00
2022-11-17T11:01:25.977Z,784.00
2022-11-17T11:02:24.388Z,776.00
2022-11-17T11:03:24.373Z,748.00
2022-11-17T11:04:24.372Z,744.00
2022-11-17T11:05:24.351Z,728.00
2022-11-17T11:06:24.337Z,760.00
2022-11-17T11:07:24.383Z,832.00
2022-11-17T11:08:24.320Z,832.00
2022-11-17T11:09:24.301Z,820.00
2022-11-17T11:10:24.287Z,1028.00
2022-11-17T11:11:24.278Z,944.00
2022-11-17T11:12:24.268Z,1052.00
2022-11-17T11:13:24.260Z,992.00
2022-11-17T11:14:24.243Z,1072.00
2022-11-17T11:15:24.232Z,984.00
2022-11-17T11:16:24.214Z,1020.00
2022-11-17T11:17:24.200Z,964.00
2022-11-17T11:18:24.186Z,892.00
2022-11-17T11:19:24.242Z,956.00
2022-11-17T11:20:24.171Z,988.00
2022-11-17T11:21:24.155Z,848.00
2022-11-17T11:22:24.155Z,912.00
2022-11-17T11:23:24.129Z,868.00
2022-11-17T11:24:24.116Z,924.00
2022-11-17T11:25:24.106Z,892.00
2022-11-17T11:26:24.092Z,852.00
2022-11-17T11:27:24.084Z,808.00
2022-11-17T11:28:24.067Z,892.00
2022-11-17T11:29:24.059Z,792.00
2022-11-17T11:30:24.046Z,832.00
2022-11-17T11:31:24.032Z,760.00
2022-11-17T11:32:24.019Z,676.00
2022-11-17T11:33:24.005Z,652.00
2022-11-17T11:34:23.993Z,628.00
2022-11-17T11:35:23.998Z,628.00
2022-11-17T11:36:23.979Z,652.00
2022-11-17T11:37:23.958Z,704.00
2022-11-17T11:38:23.944Z,708.00
2022-11-17T11:39:23.939Z,732.00
2022-11-17T11:40:23.928Z,780.00
2022-11-17T11:41:23.914Z,808.00
2022-11-17T11:42:23.899Z,816.00
2022-11-17T11:43:23.887Z,796.00
2022-11-17T11:44:23.882Z,856.00
2022-11-17T11:45:23.864Z,840.00
2022-11-17T11:46:23.852Z,796.00
2022-11-17T11:47:23.840Z,868.00
2022-11-17T11:48:23.832Z,876.00
2022-11-17T11:49:23.817Z,816.00
2022-11-17T11:50:23.804Z,828.00
2022-11-17T11:51:23.796Z,812.00
2022-11-17T11:52:24.080Z,848.00
2022-11-17T11:53:23.764Z,880.00
2022-11-17T11:54:23.752Z,844.00
2022-11-17T11:55:23.738Z,832.00
2022-11-17T11:56:23.738Z,816.00
2022-11-17T11:57:23.719Z,804.00
2022-11-17T11:58:23.703Z,800.00
2022-11-17T11:59:23.702Z,824.00
2022-11-17T12:00:23.687Z,828.00
2022-11-17T12:01:23.670Z,836.00
2022-11-17T12:02:23.758Z,812.00
2022-11-17T12:03:23.693Z,808.00
2022-11-17T12:04:23.635Z,776.00
2022-11-17T12:05:23.626Z,836.00
2022-11-17T12:06:23.693Z,844.00
2022-11-17T12:07:23.636Z,824.00
2022-11-17T12:08:23.590Z,904.00
2022-11-17T12:09:23.580Z,912.00
2022-11-17T12:10:23.561Z,788.00
2022-11-17T12:11:23.557Z,852.00
2022-11-17T12:12:23.553Z,820.00
2022-11-17T12:13:23.532Z,860.00
2022-11-17T12:14:23.510Z,828.00
2022-11-17T12:15:23.544Z,868.00
2022-11-17T12:16:23.494Z,896.00
2022-11-17T12:17:23.554Z,788.00
2022-11-17T12:18:23.466Z,812.00
2022-11-17T12:19:23.461Z,744.00
2022-11-17T12:20:23.440Z,740.00
2022-11-17T12:21:23.443Z,772.00
2022-11-17T12:22:23.414Z,740.00
2022-11-17T12:23:23.408Z,760.00
2022-11-17T12:24:23.400Z,752.00
2022-11-17T12:25:23.378Z,780.00
2022-11-17T12:26:23.366Z,732.00
2022-11-17T12:27:23.361Z,692.00
2022-11-17T12:28:23.355Z,700.00
2022-11-17T12:29:23.332Z,676.00
2022-11-17T12:30:23.317Z,772.00
2022-11-17T12:31:23.312Z,640.00
2022-11-17T12:32:23.295Z,652.00
2022-11-17T12:33:23.285Z,712.00
2022-11-17T12:34:23.276Z,700.00
2022-11-17T12:35:23.262Z,632.00
2022-11-17T12:36:29.672Z,576.00
2022-11-17T12:37:23.237Z,604.00
2022-11-17T12:38:23.225Z,656.00
2022-11-17T12:39:23.219Z,652.00
2022-11-17T12:40:23.200Z,632.00
2022-11-17T12:41:23.185Z,608.00
2022-11-17T12:42:23.173Z,568.00
2022-11-17T12:43:23.166Z,524.00
2022-11-17T12:44:23.157Z,548.00
2022-11-17T12:45:23.139Z,540.00
2022-11-17T12:46:23.134Z,556.00
2022-11-17T12:47:23.114Z,552.00
2022-11-17T12:48:35.443Z,564.00
2022-11-17T12:49:23.106Z,596.00
2022-11-17T12:50:23.085Z,616.00
2022-11-17T12:51:23.073Z,644.00
2022-11-17T12:52:23.055Z,628.00
2022-11-17T12:53:23.039Z,596.00
2022-11-17T12:54:23.031Z,584.00
2022-11-17T12:55:23.025Z,612.00
2022-11-17T12:56:23.007Z,596.00
2022-11-17T12:57:22.989Z,580.00
2022-11-17T12:58:22.989Z,600.00
2022-11-17T12:59:22.969Z,576.00